createdAt,value
2023-01-04T00:04:02.988Z,17.40
2023-01-04T00:14:04.578Z,18.97
2023-01-04T00:24:06.536Z,19.10
2023-01-04T00:34:12.745Z,19.90
2023-01-04T00:44:14.962Z,21.77
2023-01-04T00:54:17.184Z,22.57
2023-01-04T01:04:21.433Z,22.63
2023-01-04T01:14:25.460Z,20.97
2023-01-04T01:24:27.683Z,24.87
2023-01-04T01:34:29.231Z,23.67
2023-01-04T01:44:42.687Z,22.50
2023-01-04T01:54:53.804Z,20.43
2023-01-04T02:04:55.827Z,22.93
2023-01-04T02:14:57.480Z,22.80
2023-01-04T02:25:24.150Z,22.92
2023-01-04T02:35:43.692Z,22.10
2023-01-04T02:45:56.128Z,22.93
2023-01-04T02:56:03.601Z,21.53
2023-01-04T03:06:25.950Z,21.97
2023-01-04T03:16:30.307Z,22.05
2023-01-04T03:26:38.578Z,23.37
2023-01-04T03:36:55.225Z,22.37
2023-01-04T03:47:05.686Z,21.77
2023-01-04T03:57:09.384Z,19.93
2023-01-04T04:07:12.139Z,20.80
2023-01-04T04:17:13.644Z,21.47
2023-01-04T04:27:15.155Z,19.47
2023-01-04T04:37:16.695Z,20.30
2023-01-04T04:47:18.263Z,19.97
2023-01-04T04:57:19.817Z,18.70
2023-01-04T05:07:21.385Z,19.60
2023-01-04T05:17:22.887Z,20.27
2023-01-04T05:27:24.418Z,18.30
2023-01-04T05:37:25.981Z,18.90
2023-01-04T05:47:28.889Z,19.35
2023-01-04T05:57:30.465Z,19.93
2023-01-04T06:07:32.408Z,20.10
2023-01-04T06:17:34.936Z,22.60
2023-01-04T06:27:36.631Z,19.87
2023-01-04T06:37:38.192Z,21.67
2023-01-04T06:47:40.742Z,22.47
2023-01-04T06:57:42.302Z,24.20
2023-01-04T07:07:43.917Z,20.57
2023-01-04T07:17:49.501Z,22.03
2023-01-04T07:27:52.292Z,21.50
2023-01-04T07:37:58.264Z,21.90
2023-01-04T07:48:00.096Z,19.40
2023-01-04T07:58:01.632Z,20.67
2023-01-04T08:08:03.208Z,16.93
2023-01-04T08:18:04.766Z,16.38
2023-01-04T08:28:06.356Z,16.83
2023-01-04T08:38:47.317Z,14.87
2023-01-04T08:48:29.749Z,15.03
2023-01-04T08:58:32.420Z,15.53
2023-01-04T09:08:34.631Z,13.27
2023-01-04T09:18:36.239Z,14.93
2023-01-04T09:28:38.286Z,14.53
2023-01-04T09:38:39.884Z,14.07
2023-01-04T09:48:43.612Z,12.53
2023-01-04T09:58:45.718Z,13.05
2023-01-04T10:08:47.471Z,12.80
2023-01-04T10:20:08.030Z,13.97
2023-01-04T10:29:52.731Z,14.17
2023-01-04T10:39:56.109Z,12.60
2023-01-04T10:50:00.901Z,11.30
2023-01-04T11:00:44.407Z,11.63
2023-01-04T11:11:07.294Z,10.67
2023-01-04T11:21:12.230Z,12.40
2023-01-04T11:31:39.898Z,12.20
2023-01-04T11:42:00.580Z,10.82
2023-01-04T11:52:05.149Z,11.93
2023-01-04T12:12:48.146Z,12.57
2023-01-04T12:22:49.719Z,12.40
2023-01-04T12:32:51.235Z,13.95
2023-01-04T12:43:14.528Z,15.90
2023-01-04T12:53:54.563Z,20.87
2023-01-04T13:04:05.582Z,24.87
2023-01-04T13:14:26.270Z,27.67
2023-01-04T13:24:34.809Z,26.02
2023-01-04T13:34:56.835Z,26.73
2023-01-04T13:45:21.564Z,26.80
2023-01-04T13:55:29.082Z,25.67
2023-01-04T14:05:30.651Z,22.80
2023-01-04T14:15:32.381Z,20.88
2023-01-04T14:25:33.964Z,22.00
2023-01-04T14:35:38.341Z,22.53
2023-01-04T14:45:43.468Z,23.47
2023-01-04T14:55:45.808Z,22.53
2023-01-04T15:05:47.509Z,22.33
2023-01-04T15:15:49.167Z,20.27
2023-01-04T15:25:50.723Z,20.63
2023-01-04T15:36:11.864Z,19.77
2023-01-04T15:46:13.512Z,21.40
2023-01-04T15:56:15.126Z,21.75
2023-01-04T16:06:17.342Z,20.33
2023-01-04T16:16:20.907Z,21.77
2023-01-04T16:26:22.636Z,22.37
2023-01-04T16:36:24.151Z,22.27
2023-01-04T16:46:26.689Z,20.38
2023-01-04T16:56:28.331Z,21.13
2023-01-04T17:06:32.239Z,20.90
2023-01-04T17:16:35.138Z,20.03
2023-01-04T17:26:36.961Z,20.03
2023-01-04T17:36:57.337Z,19.50
2023-01-04T17:46:58.862Z,21.50
2023-01-04T17:57:00.392Z,21.50
2023-01-04T18:07:01.926Z,22.10
2023-01-04T18:17:03.453Z,19.73
2023-01-04T18:37:27.366Z,19.70
2023-01-04T18:47:29.095Z,17.13
2023-01-04T18:57:30.642Z,15.73
2023-01-04T19:07:32.182Z,15.97
2023-01-04T19:17:33.723Z,15.27
2023-01-04T19:27:35.317Z,15.30
2023-01-04T19:37:36.870Z,14.50
2023-01-04T19:47:38.434Z,13.40
2023-01-04T19:57:39.990Z,13.20
2023-01-04T20:07:41.741Z,12.07
2023-01-04T20:17:43.307Z,11.10
2023-01-04T20:27:44.810Z,11.63
2023-01-04T20:37:46.372Z,11.47
2023-01-04T20:47:47.899Z,11.67
2023-01-04T20:57:49.467Z,11.10
2023-01-04T21:07:50.997Z,15.10
2023-01-04T21:17:52.562Z,13.30
2023-01-04T21:27:54.136Z,13.53
2023-01-04T21:37:55.775Z,13.63
2023-01-04T21:47:57.629Z,13.43
2023-01-04T21:57:59.194Z,12.67
2023-01-04T22:08:00.787Z,12.30
2023-01-04T22:18:02.299Z,12.53
2023-01-04T22:28:04.309Z,12.40
2023-01-04T22:38:06.080Z,11.02
2023-01-04T22:48:07.596Z,10.90
2023-01-04T22:58:09.254Z,10.70
2023-01-04T23:08:10.820Z,11.43
2023-01-04T23:18:12.346Z,11.10
2023-01-04T23:28:13.940Z,11.88
2023-01-04T23:38:15.475Z,11.63
2023-01-04T23:48:16.969Z,13.40
2023-01-04T23:58:18.474Z,14.50
